sensor_id;sensor_type;location;lat;lon;timestamp;pressure;altitude;pressure_sealevel;temperature;humidity
55014;BME280;40916;51.632;5.552;2022-12-28T00:00:24;1011.9849024140927;;;5.808370764320578;0
55014;BME280;40916;51.632;5.552;2022-12-28T00:01:24;1012.1102943657091;;;5.822654965043881;0
55014;BME280;40916;51.632;5.552;2022-12-28T00:02:24;1012.1550364413271;;;5.815513134192226;0
55014;BME280;40916;51.632;5.552;2022-12-28T00:03:24;1012.16752706233;;;5.829796257058433;0
55014;BME280;40916;51.632;5.552;2022-12-28T00:04:24;1012.0431729143244;;;5.808370764320578;0
55014;BME280;40916;51.632;5.552;2022-12-28T00:05:24;1012.103010319177;;;5.822654965043881;0
55014;BME280;40916;51.632;5.552;2022-12-28T00:06:24;1011.935477377914;;;5.822654965043881;0
55014;BME280;40916;51.632;5.552;2022-12-28T00:07:24;1011.9417181887212;;;5.829796257058433;0
55014;BME280;40916;51.632;5.552;2022-12-28T00:08:24;1011.9104878327769;;;5.844077225307412;0
55014;BME280;40916;51.632;5.552;2022-12-28T00:09:24;1011.8558550260709;;;5.844077225307412;0
55014;BME280;40916;51.632;5.552;2022-12-28T00:10:25;1011.8194331695385;;;5.844077225307412;0
55014;BME280;40916;51.632;5.552;2022-12-28T00:11:25;1011.859980550404;;;5.865494640970276;0
55014;BME280;40916;51.632;5.552;2022-12-28T00:12:25;1011.9489258178628;;;5.8797702290674145;0
55014;BME280;40916;51.632;5.552;2022-12-28T00:13:25;1011.8203772550751;;;5.886907216959507;0
55014;BME280;40916;51.632;5.552;2022-12-28T00:14:25;1011.7563219153355;;;5.901179581341502;0
55014;BME280;40916;51.632;5.552;2022-12-28T00:15:25;1011.676183887499;;;5.901179581341502;0
55014;BME280;40916;51.632;5.552;2022-12-28T00:16:27;1011.6688986150459;;;5.901179581341502;0
55014;BME280;40916;51.632;5.552;2022-12-28T00:17:25;1011.7556744655609;;;5.929717869591833;0
55014;BME280;40916;51.632;5.552;2022-12-28T00:18:25;1011.7483887323259;;;5.929717869591833;0
55014;BME280;40916;51.632;5.552;2022-12-28T00:19:25;1011.7072386319255;;;5.936851100941258;0
55014;BME280;40916;51.632;5.552;2022-12-28T00:20:25;1011.6015939392872;;;5.936851100941258;0
55014;BME280;40916;51.632;5.552;2022-12-28T00:21:26;1011.6092697852168;;;5.958247580183528;0
55014;BME280;40916;51.632;5.552;2022-12-28T00:22:26;1011.548424669592;;;5.951115956055649;0
55014;BME280;40916;51.632;5.552;2022-12-28T00:23:26;1011.5874112484335;;;5.958247580183528;0
55014;BME280;40916;51.632;5.552;2022-12-28T00:24:26;1011.5203661524239;;;5.943983796368698;0
55014;BME280;40916;51.632;5.552;2022-12-28T00:25:26;1011.4792071031404;;;5.951115956055649;0
55014;BME280;40916;51.632;5.552;2022-12-28T00:26:27;1011.5436941874917;;;5.958247580183528;0
55014;BME280;40916;51.632;5.552;2022-12-28T00:27:26;1011.4172756320847;;;5.951115956055649;0
55014;BME280;40916;51.632;5.552;2022-12-28T00:28:26;1011.4234723566976;;;5.958247580183528;0
55014;BME280;40916;51.632;5.552;2022-12-28T00:29:26;1011.4526170312611;;;5.958247580183528;0
55014;BME280;40916;51.632;5.552;2022-12-28T00:30:27;1011.3761122764886;;;5.958247580183528;0
55014;BME280;40916;51.632;5.552;2022-12-28T00:31:27;1011.43112140136;;;5.979639241025616;0
55014;BME280;40916;51.632;5.552;2022-12-28T00:32:27;1011.3178229741205;;;5.958247580183528;0
55014;BME280;40916;51.632;5.552;2022-12-28T00:33:27;1011.2901322923095;;;5.9725092224873;0
55014;BME280;40916;51.632;5.552;2022-12-28T00:34:27;1011.2792027125178;;;5.9725092224873;0
55014;BME280;40916;51.632;5.552;2022-12-28T00:35:27;1011.1906668332393;;;5.979639241025616;0
55014;BME280;40916;51.632;5.552;2022-12-28T00:36:27;1011.2912279138903;;;5.96537866893366;0
55014;BME280;40916;51.632;5.552;2022-12-28T00:37:27;1011.3582563269397;;;5.979639241025616;0
55014;BME280;40916;51.632;5.552;2022-12-28T00:38:28;1011.292677799944;;;5.979639241025616;0
55014;BME280;40916;51.632;5.552;2022-12-28T00:39:27;1011.161520859587;;;5.979639241025616;0
55014;BME280;40916;51.632;5.552;2022-12-28T00:40:28;1011.2624315385154;;;5.986768724729696;0
55014;BME280;40916;51.632;5.552;2022-12-28T00:41:28;1011.1932087380234;;;5.986768724729696;0
55014;BME280;40916;51.632;5.552;2022-12-28T00:42:28;1011.1021261700985;;;5.986768724729696;0
55014;BME280;40916;51.632;5.552;2022-12-28T00:43:28;1011.1312725838843;;;5.986768724729696;0
55014;BME280;40916;51.632;5.552;2022-12-28T00:44:28;1011.0401900656467;;;5.986768724729696;0
55014;BME280;40916;51.632;5.552;2022-12-28T00:45:28;1010.94689095415;;;6.001026088359076;0
55014;BME280;40916;51.632;5.552;2022-12-28T00:46:28;1010.9978987071136;;;6.001026088359076;0
55014;BME280;40916;51.632;5.552;2022-12-28T00:47:28;1010.977147176457;;;5.993897673780541;0
55014;BME280;40916;51.632;5.552;2022-12-28T00:48:28;1010.9704617818086;;;6.036660150493706;0
55014;BME280;40916;51.632;5.552;2022-12-28T00:49:28;1010.8597477409015;;;6.022408127068832;0
55014;BME280;40916;51.632;5.552;2022-12-28T00:50:29;1010.8600276261874;;;6.043785362033201;0
55014;BME280;40916;51.632;5.552;2022-12-28T00:51:29;1010.7532318515415;;;6.050910040364567;0
55014;BME280;40916;51.632;5.552;2022-12-28T00:52:29;1010.9443454257034;;;6.086525440206088;0
55014;BME280;40916;51.632;5.552;2022-12-28T00:53:29;1010.9238488417402;;;6.100767873989032;0
55014;BME280;40916;51.632;5.552;2022-12-28T00:54:29;1010.9215642762151;;;6.115008180698968;0
55014;BME280;40916;51.632;5.552;2022-12-28T00:55:29;1010.941137871697;;;6.129246361772559;0
55014;BME280;40916;51.632;5.552;2022-12-28T00:56:29;1010.8245160525398;;;6.129246361772559;0
55014;BME280;40916;51.632;5.552;2022-12-28T00:57:30;1010.8502131078627;;;6.150599650954298;0
55014;BME280;40916;51.632;5.552;2022-12-28T00:58:29;1010.9173047228105;;;6.1861778583913605;0
55014;BME280;40916;51.632;5.552;2022-12-28T00:59:29;1011.0001092784617;;;6.214630890140857;0
55014;BME280;40916;51.632;5.552;2022-12-28T01:00:30;1010.8858098095124;;;6.200405432787864;0
55014;BME280;40916;51.632;5.552;2022-12-28T01:01:30;1010.9721201464313;;;6.207518426005542;0
55014;BME280;40916;51.632;5.552;2022-12-28T01:02:30;1010.9089813788961;;;6.214630890140857;0
55014;BME280;40916;51.632;5.552;2022-12-28T01:03:30;1010.9601297467348;;;6.235965109836361;0
55014;BME280;40916;51.632;5.552;2022-12-28T01:04:30;1010.8532345179464;;;6.243075459425565;0
55014;BME280;40916;51.632;5.552;2022-12-28T01:05:30;1010.7584557205461;;;6.243075459425565;0
55014;BME280;40916;51.632;5.552;2022-12-28T01:06:30;1010.7499793898688;;;6.250185280823672;0
55014;BME280;40916;51.632;5.552;2022-12-28T01:07:30;1010.6709676700946;;;6.243075459425565;0
55014;BME280;40916;51.632;5.552;2022-12-28T01:08:30;1010.6989438944898;;;6.250185280823672;0
55014;BME280;40916;51.632;5.552;2022-12-28T01:09:30;1010.7281820083557;;;6.2715115776511645;0
55014;BME280;40916;51.632;5.552;2022-12-28T01:10:31;1010.8558391815629;;;6.292833127162503;0
55014;BME280;40916;51.632;5.552;2022-12-28T01:11:31;1010.7792787233217;;;6.292833127162503;0
55014;BME280;40916;51.632;5.552;2022-12-28T01:12:31;1010.6358931665856;;;6.299939256202855;0
55014;BME280;40916;51.632;5.552;2022-12-28T01:13:31;1010.6711704352771;;;6.32835850644539;0
55014;BME280;40916;51.632;5.552;2022-12-28T01:14:31;1010.829174443383;;;6.342564974496632;0
55014;BME280;40916;51.632;5.552;2022-12-28T01:15:31;1010.6954804861152;;;6.356769339723126;0
55014;BME280;40916;51.632;5.552;2022-12-28T01:16:32;1010.6772293214412;;;6.3780719478611445;0
55014;BME280;40916;51.632;5.552;2022-12-28T01:17:31;1010.6650185339129;;;6.406468078686665;0
55014;BME280;40916;51.632;5.552;2022-12-28T01:18:31;1010.7208950742213;;;6.420662998692457;0
55014;BME280;40916;51.632;5.552;2022-12-28T01:19:32;1010.5872032454241;;;6.413565800659935;0
55014;BME280;40916;51.632;5.552;2022-12-28T01:20:32;1010.7038295659012;;;6.434855823639577;0
55014;BME280;40916;51.632;5.552;2022-12-28T01:21:32;1010.6478833533577;;;6.441951450906156;0
55014;BME280;40916;51.632;5.552;2022-12-28T01:22:32;1010.6770587301609;;;6.441951450906156;0
55014;BME280;40916;51.632;5.552;2022-12-28T01:23:32;1010.5774315732416;;;6.4277596729603275;0
55014;BME280;40916;51.632;5.552;2022-12-28T01:24:32;1010.6684196543246;;;6.47032872936197;0
55014;BME280;40916;51.632;5.552;2022-12-28T01:25:32;1010.6064181390735;;;6.47032872936197;0
55014;BME280;40916;51.632;5.552;2022-12-28T01:26:32;1010.4775118772217;;;6.477421742201663;0
55014;BME280;40916;51.632;5.552;2022-12-28T01:27:32;1010.5563571311054;;;6.505788571727663;0
55014;BME280;40916;51.632;5.552;2022-12-28T01:28:33;1010.4627887111556;;;6.49869764727044;0
55014;BME280;40916;51.632;5.552;2022-12-28T01:29:33;1010.5416122234662;;;6.5270582158545025;0
55014;BME280;40916;51.632;5.552;2022-12-28T01:30:33;1010.4358319303095;;;6.5270582158545025;0
55014;BME280;40916;51.632;5.552;2022-12-28T01:31:33;1010.4783304144213;;;6.534147054731854;0
55014;BME280;40916;51.632;5.552;2022-12-28T01:32:33;1010.3884132101972;;;6.5270582158545025;0
55014;BME280;40916;51.632;5.552;2022-12-28T01:33:33;1010.4418538942131;;;6.534147054731854;0
55014;BME280;40916;51.632;5.552;2022-12-28T01:34:33;1010.4903699268633;;;6.548323169788382;0
55014;BME280;40916;51.632;5.552;2022-12-28T01:35:33;1010.4418538942131;;;6.534147054731854;0
55014;BME280;40916;51.632;5.552;2022-12-28T01:36:33;1010.3603290431772;;;6.54123537265156;0
55014;BME280;40916;51.632;5.552;2022-12-28T01:37:33;1010.3176437200436;;;6.555410446317023;0
55014;BME280;40916;51.632;5.552;2022-12-28T01:38:34;1010.3444593713464;;;6.548323169788382;0
55014;BME280;40916;51.632;5.552;2022-12-28T01:39:34;1010.3068908713419;;;6.534147054731854;0
55014;BME280;40916;51.632;5.552;2022-12-28T01:40:34;1010.3202042904649;;;6.54123537265156;0
55014;BME280;40916;51.632;5.552;2022-12-28T01:41:35;1010.3687131736698;;;6.555410446317023;0
55014;BME280;40916;51.632;5.552;2022-12-28T01:42:35;1010.2676517608345;;;6.56958343824812;0
55014;BME280;40916;51.632;5.552;2022-12-28T01:43:35;1010.2650731179011;;;6.583754349840827;0
55014;BME280;40916;51.632;5.552;2022-12-28T01:44:42;1010.1921123009058;;;6.583754349840827;0
55014;BME280;40916;51.632;5.552;2022-12-28T01:45:34;1010.2468329092566;;;6.583754349840827;0
55014;BME280;40916;51.632;5.552;2022-12-28T01:46:36;1010.1845771836063;;;6.60500681964605;0
55014;BME280;40916;51.632;5.552;2022-12-28T01:47:34;1010.1129119190109;;;6.5979231824898825;0
55014;BME280;40916;51.632;5.552;2022-12-28T01:48:34;1010.0826711633262;;;6.583754349840827;0
55014;BME280;40916;51.632;5.552;2022-12-28T01:49:35;1010.1577394891149;;;6.612089937588763;0
55014;BME280;40916;51.632;5.552;2022-12-28T01:50:35;1010.0918029942264;;;6.6333361778756945;0
55014;BME280;40916;51.632;5.552;2022-12-28T01:51:38;1010.0284692209887;;;6.640417220703721;0
55014;BME280;40916;51.632;5.552;2022-12-28T01:52:35;1010.0550309445538;;;6.654577751500543;0
55014;BME280;40916;51.632;5.552;2022-12-28T01:53:35;1009.9611786803916;;;6.668736210308698;0
55014;BME280;40916;51.632;5.552;2022-12-28T01:54:37;1009.968153910041;;;6.689970016576488;0
55014;BME280;40916;51.632;5.552;2022-12-28T01:55:37;1009.9850708327474;;;6.697046917506839;0
55014;BME280;40916;51.632;5.552;2022-12-28T01:56:35;1010.010268858518;;;6.718274519244019;0
55014;BME280;40916;51.632;5.552;2022-12-28T01:57:37;1009.9505469460685;;;6.725349353381475;0
55014;BME280;40916;51.632;5.552;2022-12-28T01:58:35;1009.9186741702559;;;6.739497473030614;0
55014;BME280;40916;51.632;5.552;2022-12-28T01:59:36;1010.1499159443084;;;6.732423671252782;0
55014;BME280;40916;51.632;5.552;2022-12-28T02:00:36;1009.9551669269824;;;6.739497473030614;0
55014;BME280;40916;51.632;5.552;2022-12-28T02:01:36;1009.812845242081;;;6.739497473030614;0
55014;BME280;40916;51.632;5.552;2022-12-28T02:02:36;1009.8927428320811;;;6.7607157835288625;0
55014;BME280;40916;51.632;5.552;2022-12-28T02:03:36;1009.8502974834288;;;6.753643528996172;0
55014;BME280;40916;51.632;5.552;2022-12-28T02:04:36;1009.7189196668245;;;6.753643528996172;0
55014;BME280;40916;51.632;5.552;2022-12-28T02:05:37;1009.7988031907566;;;6.7748587465559105;0
55014;BME280;40916;51.632;5.552;2022-12-28T02:06:36;1009.8175570646565;;;6.810207143601438;0
55014;BME280;40916;51.632;5.552;2022-12-28T02:07:37;1009.7737590318221;;;6.810207143601438;0
55014;BME280;40916;51.632;5.552;2022-12-28T02:08:37;1009.7345266013531;;;6.8243429018224795;0
55014;BME280;40916;51.632;5.552;2022-12-28T02:09:37;1009.6081485706667;;;6.817275279725639;0
55014;BME280;40916;51.632;5.552;2022-12-28T02:10:37;1009.6770334128959;;;6.838476604620702;0
55014;BME280;40916;51.632;5.552;2022-12-28T02:11:37;1009.6879835877997;;;6.838476604620702;0
55014;BME280;40916;51.632;5.552;2022-12-28T02:12:37;1009.6596805177952;;;6.852608253368615;0
55014;BME280;40916;51.632;5.552;2022-12-28T02:13:37;1009.5159423469631;;;6.8596733079022805;0
55014;BME280;40916;51.632;5.552;2022-12-28T02:14:37;1009.4533789518373;;;6.880865394197425;0
55014;BME280;40916;51.632;5.552;2022-12-28T02:15:37;1009.5298160258923;;;6.937355087506116;0
55014;BME280;40916;51.632;5.552;2022-12-28T02:16:37;1009.488250380757;;;6.944413997342245;0
55014;BME280;40916;51.632;5.552;2022-12-28T02:17:37;1009.5584517429323;;;6.958530284338348;0
55014;BME280;40916;51.632;5.552;2022-12-28T02:18:38;1009.566580309911;;;6.972644528901245;0
55014;BME280;40916;51.632;5.552;2022-12-28T02:19:39;1009.4738854687001;;;6.979700885695589;0
55014;BME280;40916;51.632;5.552;2022-12-28T02:20:39;1009.4351398272254;;;6.972644528901245;0
55014;BME280;40916;51.632;5.552;2022-12-28T02:21:39;1009.4109976555573;;;6.96558766183886;0
55014;BME280;40916;51.632;5.552;2022-12-28T02:22:43;1009.2627200275851;;;6.958530284338348;0
55014;BME280;40916;51.632;5.552;2022-12-28T02:23:42;1009.3071147932047;;;6.937355087506116;0
55014;BME280;40916;51.632;5.552;2022-12-28T02:24:43;1009.4722381418991;;;6.951472396229555;0
55014;BME280;40916;51.632;5.552;2022-12-28T02:25:46;1009.4284266973576;;;6.951472396229555;0
55014;BME280;40916;51.632;5.552;2022-12-28T02:26:43;1009.4261851227196;;;6.944413997342245;0
55014;BME280;40916;51.632;5.552;2022-12-28T02:27:40;1009.3500850041377;;;6.9232357343057735;0
55014;BME280;40916;51.632;5.552;2022-12-28T02:28:43;1009.3113300891575;;;6.916175290600563;0
55014;BME280;40916;51.632;5.552;2022-12-28T02:29:43;1009.0015845542815;;;6.89499088901723;0
55014;BME280;40916;51.632;5.552;2022-12-28T02:30:39;1009.1649985376824;;;6.880865394197425;0
55014;BME280;40916;51.632;5.552;2022-12-28T02:31:40;1009.1978519656145;;;6.880865394197425;0
55014;BME280;40916;51.632;5.552;2022-12-28T02:32:44;1009.1467466373837;;;6.880865394197425;0
55014;BME280;40916;51.632;5.552;2022-12-28T02:33:43;1009.2161038741291;;;6.880865394197425;0
55014;BME280;40916;51.632;5.552;2022-12-28T02:34:39;1009.1102428455889;;;6.880865394197425;0
55014;BME280;40916;51.632;5.552;2022-12-28T02:35:44;1009.2060120643878;;;6.89499088901723;0
55014;BME280;40916;51.632;5.552;2022-12-28T02:36:40;1009.131041723876;;;6.9232357343057735;0
55014;BME280;40916;51.632;5.552;2022-12-28T02:37:41;1009.09030313847;;;6.944413997342245;0
55014;BME280;40916;51.632;5.552;2022-12-28T02:38:41;1009.1467015235892;;;6.972644528901245;0
55014;BME280;40916;51.632;5.552;2022-12-28T02:39:40;1009.0343191935211;;;6.986756732391893;0
55014;BME280;40916;51.632;5.552;2022-12-28T02:40:40;1009.005251964705;;;7.022028320347772;0
55014;BME280;40916;51.632;5.552;2022-12-28T02:41:39;1009.1097999053493;;;7.0643374281269296;0
55014;BME280;40916;51.632;5.552;2022-12-28T02:42:39;1009.0199957749861;;;7.092533336445218;0
55014;BME280;40916;51.632;5.552;2022-12-28T02:43:40;1009.05067441242;;;7.120721126551047;0
55014;BME280;40916;51.632;5.552;2022-12-28T02:44:40;1008.946181894652;;;7.148900809235823;0
55014;BME280;40916;51.632;5.552;2022-12-28T02:45:40;1008.9272118634707;;;7.134811980647349;0
55014;BME280;40916;51.632;5.552;2022-12-28T02:46:40;1009.0214106837302;;;7.155944464385275;0
55014;BME280;40916;51.632;5.552;2022-12-28T02:47:40;1008.96514515755;;;7.162987613662402;0
55014;BME280;40916;51.632;5.552;2022-12-28T02:48:40;1009.041147330181;;;7.148900809235823;0
55014;BME280;40916;51.632;5.552;2022-12-28T02:49:40;1008.9352664454135;;;7.113674939516525;0
55014;BME280;40916;51.632;5.552;2022-12-28T02:50:42;1009.0083111359049;;;7.113674939516525;0
55014;BME280;40916;51.632;5.552;2022-12-28T02:51:52;1008.9922356789806;;;7.085485120870022;0
55014;BME280;40916;51.632;5.552;2022-12-28T02:52:45;1008.9447114121359;;;7.050236426260561;0
55014;BME280;40916;51.632;5.552;2022-12-28T02:53:46;1008.9293414297244;;;7.036133390785615;0
55014;BME280;40916;51.632;5.552;2022-12-28T02:55:14;1008.8868405842233;;;6.993812069160089;0
55014;BME280;40916;51.632;5.552;2022-12-28T02:55:45;1008.8172984040386;;;6.958530284338348;0
55014;BME280;40916;51.632;5.552;2022-12-28T02:56:41;1008.8712502058382;;;6.944413997342245;0
55014;BME280;40916;51.632;5.552;2022-12-28T02:57:45;1008.9440199982976;;;6.90911433526454;0
55014;BME280;40916;51.632;5.552;2022-12-28T02:58:46;1008.8401151510944;;;6.880865394197425;0
55014;BME280;40916;51.632;5.552;2022-12-28T02:59:45;1008.9341658517795;;;6.866737849437502;0
55014;BME280;40916;51.632;5.552;2022-12-28T03:00:45;1008.888623595333;;;6.838476604620702;0
55014;BME280;40916;51.632;5.552;2022-12-28T03:01:46;1008.8891232041966;;;6.817275279725639;0
55014;BME280;40916;51.632;5.552;2022-12-28T03:02:46;1008.9278911696032;;;6.8243429018224795;0
55014;BME280;40916;51.632;5.552;2022-12-28T03:03:45;1008.8809301076595;;;6.803138493278119;0
55014;BME280;40916;51.632;5.552;2022-12-28T03:04:46;1008.7741893108837;;;6.7889996493467315;0
55014;BME280;40916;51.632;5.552;2022-12-28T03:05:44;1008.7819508323056;;;6.767787522658011;0
55014;BME280;40916;51.632;5.552;2022-12-28T03:06:45;1008.9010165182373;;;6.7748587465559105;0
55014;BME280;40916;51.632;5.552;2022-12-28T03:07:44;1008.821175322199;;;6.753643528996172;0
55014;BME280;40916;51.632;5.552;2022-12-28T03:08:44;1008.8494416049542;;;6.739497473030614;0
55014;BME280;40916;51.632;5.552;2022-12-28T03:09:43;1008.8840506170081;;;6.711199168667658;0
55014;BME280;40916;51.632;5.552;2022-12-28T03:10:43;1008.700651895422;;;6.697046917506839;0
55014;BME280;40916;51.632;5.552;2022-12-28T03:11:42;1008.8429589596168;;;6.697046917506839;0
55014;BME280;40916;51.632;5.552;2022-12-28T03:12:44;1008.7726714840618;;;6.682892598515451;0
55014;BME280;40916;51.632;5.552;2022-12-28T03:13:44;1008.7693945577299;;;6.661657239816471;0
55014;BME280;40916;51.632;5.552;2022-12-28T03:14:45;1008.7790024269738;;;6.668736210308698;0
55014;BME280;40916;51.632;5.552;2022-12-28T03:15:42;1008.73290840076;;;6.661657239816471;0
55014;BME280;40916;51.632;5.552;2022-12-28T03:16:43;1008.7027431172281;;;6.647497745187469;0
55014;BME280;40916;51.632;5.552;2022-12-28T03:17:43;1008.7634335218733;;;6.654577751500543;0
55014;BME280;40916;51.632;5.552;2022-12-28T03:18:43;1008.7926220019142;;;6.654577751500543;0
55014;BME280;40916;51.632;5.552;2022-12-28T03:19:44;1008.7246341254967;;;6.647497745187469;0
55014;BME280;40916;51.632;5.552;2022-12-28T03:20:43;1008.6689232222144;;;6.6333361778756945;0
55014;BME280;40916;51.632;5.552;2022-12-28T03:21:43;1008.6712401447545;;;6.640417220703721;0
55014;BME280;40916;51.632;5.552;2022-12-28T03:22:43;1008.6639432580873;;;6.640417220703721;0
55014;BME280;40916;51.632;5.552;2022-12-28T03:23:43;1008.5462095130513;;;6.62625461652971;0
55014;BME280;40916;51.632;5.552;2022-12-28T03:24:43;1008.8045431418535;;;6.668736210308698;0
55014;BME280;40916;51.632;5.552;2022-12-28T03:25:44;1008.5773571380213;;;6.654577751500543;0
55014;BME280;40916;51.632;5.552;2022-12-28T03:26:45;1008.602523493093;;;6.675814663150593;0
55014;BME280;40916;51.632;5.552;2022-12-28T03:27:43;1008.6294069266339;;;6.668736210308698;0
55014;BME280;40916;51.632;5.552;2022-12-28T03:28:43;1008.4346823122353;;;6.675814663150593;0
55014;BME280;40916;51.632;5.552;2022-12-28T03:29:46;1008.5162982645577;;;6.668736210308698;0
55014;BME280;40916;51.632;5.552;2022-12-28T03:30:44;1008.466559810113;;;6.661657239816471;0
55014;BME280;40916;51.632;5.552;2022-12-28T03:31:44;1008.4496578353745;;;6.654577751500543;0
55014;BME280;40916;51.632;5.552;2022-12-28T03:32:44;1008.4861433357597;;;6.654577751500543;0
55014;BME280;40916;51.632;5.552;2022-12-28T03:33:44;1008.4874817607491;;;6.647497745187469;0
55014;BME280;40916;51.632;5.552;2022-12-28T03:34:44;1008.5454875859184;;;6.668736210308698;0
55014;BME280;40916;51.632;5.552;2022-12-28T03:35:45;1008.4519653848475;;;6.661657239816471;0
55014;BME280;40916;51.632;5.552;2022-12-28T03:36:47;1008.4725142965882;;;6.668736210308698;0
55014;BME280;40916;51.632;5.552;2022-12-28T03:37:46;1008.6280645641068;;;6.675814663150593;0
55014;BME280;40916;51.632;5.552;2022-12-28T03:38:47;1008.5587388132951;;;6.675814663150593;0
55014;BME280;40916;51.632;5.552;2022-12-28T03:39:46;1008.5646908707042;;;6.682892598515451;0
55014;BME280;40916;51.632;5.552;2022-12-28T03:40:46;1008.542798196725;;;6.682892598515451;0
55014;BME280;40916;51.632;5.552;2022-12-28T03:41:46;1008.5145583113923;;;6.697046917506839;0
55014;BME280;40916;51.632;5.552;2022-12-28T03:42:46;1008.5255049843621;;;6.697046917506839;0
55014;BME280;40916;51.632;5.552;2022-12-28T03:43:45;1008.4880665302469;;;6.682892598515451;0
55014;BME280;40916;51.632;5.552;2022-12-28T03:44:46;1008.3781950273731;;;6.704123301479569;0
55014;BME280;40916;51.632;5.552;2022-12-28T03:45:49;1008.5990054856286;;;6.732423671252782;0
55014;BME280;40916;51.632;5.552;2022-12-28T03:46:46;1008.4689964033516;;;6.725349353381475;0
55014;BME280;40916;51.632;5.552;2022-12-28T03:47:45;1008.3572347534302;;;6.718274519244019;0
55014;BME280;40916;51.632;5.552;2022-12-28T03:48:45;1008.5137119553065;;;6.739497473030614;0
55014;BME280;40916;51.632;5.552;2022-12-28T03:49:45;1008.4676352200814;;;6.732423671252782;0
55014;BME280;40916;51.632;5.552;2022-12-28T03:50:46;1008.3800551275016;;;6.732423671252782;0
55014;BME280;40916;51.632;5.552;2022-12-28T03:51:45;1008.3157336575728;;;6.725349353381475;0
55014;BME280;40916;51.632;5.552;2022-12-28T03:52:45;1008.3266809896955;;;6.725349353381475;0
55014;BME280;40916;51.632;5.552;2022-12-28T03:53:46;1008.427494335929;;;6.732423671252782;0
55014;BME280;40916;51.632;5.552;2022-12-28T03:54:46;1008.4055993141917;;;6.732423671252782;0
55014;BME280;40916;51.632;5.552;2022-12-28T03:55:46;1008.4297796980206;;;6.739497473030614;0
55014;BME280;40916;51.632;5.552;2022-12-28T03:56:46;1008.5169108658978;;;6.7607157835288625;0
55014;BME280;40916;51.632;5.552;2022-12-28T03:57:46;1008.4183771208525;;;6.7607157835288625;0
55014;BME280;40916;51.632;5.552;2022-12-28T03:58:47;1008.4945449460015;;;6.781929455394771;0
55014;BME280;40916;51.632;5.552;2022-12-28T03:59:46;1008.4612096120418;;;6.803138493278119;0
55014;BME280;40916;51.632;5.552;2022-12-28T04:00:46;1008.2947060974636;;;6.7960693285838545;0
55014;BME280;40916;51.632;5.552;2022-12-28T04:01:46;1008.335213755367;;;6.831410010063632;0
55014;BME280;40916;51.632;5.552;2022-12-28T04:02:47;1008.3986538416063;;;6.8243429018224795;0
55014;BME280;40916;51.632;5.552;2022-12-28T04:03:47;1008.4048793783204;;;6.866737849437502;0
55014;BME280;40916;51.632;5.552;2022-12-28T04:04:47;1008.3720271957832;;;6.866737849437502;0
55014;BME280;40916;51.632;5.552;2022-12-28T04:05:47;1008.240618560698;;;6.866737849437502;0
55014;BME280;40916;51.632;5.552;2022-12-28T04:06:47;1008.1917593483778;;;6.873801878145503;0
55014;BME280;40916;51.632;5.552;2022-12-28T04:07:47;1008.1852905308583;;;6.8879283977643375;0
55014;BME280;40916;51.632;5.552;2022-12-28T04:08:47;1008.0670634813845;;;6.89499088901723;0
55014;BME280;40916;51.632;5.552;2022-12-28T04:09:47;1008.1490028786925;;;6.9232357343057735;0
55014;BME280;40916;51.632;5.552;2022-12-28T04:10:47;1008.0613864428019;;;6.9232357343057735;0
55014;BME280;40916;51.632;5.552;2022-12-28T04:11:48;1008.1301242511131;;;6.944413997342245;0
55014;BME280;40916;51.632;5.552;2022-12-28T04:12:48;1008.019167583076;;;6.951472396229555;0
55014;BME280;40916;51.632;5.552;2022-12-28T04:13:48;1008.1799363937893;;;6.986756732391893;0
55014;BME280;40916;51.632;5.552;2022-12-28T04:14:48;1008.2245198789433;;;7.000866896170034;0
55014;BME280;40916;51.632;5.552;2022-12-28T04:15:56;1008.2128785338733;;;7.022028320347772;0
55014;BME280;40916;51.632;5.552;2022-12-28T04:16:48;1008.2983576298935;;;7.050236426260561;0